Georgetown, Australia
Current Conditions -  °F | °C
As of 7:00 PM on Sunday 21 Dec 2014 (Local Time) from YBCS Reporting Station
Rain Showers Rain Showers  
Wind Chill: 84°   Ceiling: Unl
Heat Index: 91°   Visibility: 6mi
Dew Point: 73°   Wind: 10mph
Humidity: 70%   Direction: 140°SE
Pressure: 29.83"   Gusts: NA
Location:  18.3°S, 143.55°E
Report Text: YBCS 210900Z 14009KT 9999 VCSH SCT025 SCT280 29/23 Q1010 NOSIG
Loading
Personal Weather Stations






























Interactive Weather Map New forecast layout! Learn more

10-Day Weather Forecast

Advertisements
Track Severe Weather on mobile